createdAt,value
2023-03-05T00:00:15.497Z,94394.09
2023-03-05T00:02:42.563Z,94381.41
2023-03-05T00:05:09.844Z,94380.63
2023-03-05T00:07:36.581Z,94383.78
2023-03-05T00:10:05.852Z,94383.28
2023-03-05T00:12:32.588Z,94380.63
2023-03-05T00:14:59.272Z,94378.78
2023-03-05T00:17:25.986Z,94381.94
2023-03-05T00:19:52.677Z,94382.72
2023-03-05T00:22:19.346Z,94377.97
2023-03-05T00:24:46.005Z,94375.34
2023-03-05T00:27:12.714Z,94373.50
2023-03-05T00:29:39.494Z,94375.34
2023-03-05T00:32:06.281Z,94370.06
2023-03-05T00:34:33.060Z,94369.53
2023-03-05T00:36:59.737Z,94375.09
2023-03-05T00:39:26.474Z,94368.75
2023-03-05T00:41:53.451Z,94370.88
2023-03-05T00:44:20.224Z,94361.88
2023-03-05T00:46:47.452Z,94370.88
2023-03-05T00:49:14.229Z,94364.78
2023-03-05T00:51:41.390Z,94358.44
2023-03-05T00:54:08.143Z,94370.31
2023-03-05T00:56:34.829Z,94363.72
2023-03-05T00:59:01.828Z,94359.75
2023-03-05T01:01:29.277Z,94365.81
2023-03-05T01:04:00.123Z,94355.00
2023-03-05T01:06:27.372Z,94354.72
2023-03-05T01:08:54.271Z,94357.41
2023-03-05T01:11:20.937Z,94354.25
2023-03-05T01:13:47.852Z,94347.91
2023-03-05T01:16:14.693Z,94347.91
2023-03-05T01:18:41.629Z,94346.84
2023-03-05T01:21:08.673Z,94341.56
2023-03-05T01:23:37.492Z,94335.22
2023-03-05T01:26:05.154Z,94334.66
2023-03-05T01:28:32.793Z,94327.81
2023-03-05T01:30:59.580Z,94330.97
2023-03-05T01:33:26.381Z,94333.09
2023-03-05T01:35:53.132Z,94316.44
2023-03-05T01:38:19.929Z,94317.25
2023-03-05T01:40:46.722Z,94317.78
2023-03-05T01:43:13.434Z,94315.94
2023-03-05T01:46:35.202Z,94310.38
2023-03-05T01:49:04.478Z,94307.47
2023-03-05T01:51:55.072Z,94298.75
2023-03-05T01:54:24.858Z,94305.09
2023-03-05T01:56:56.110Z,94300.88
2023-03-05T01:59:23.930Z,94293.50
2023-03-05T02:01:54.753Z,94298.25
2023-03-05T02:04:27.689Z,94299.81
2023-03-05T02:06:54.364Z,94294.28
2023-03-05T02:09:23.663Z,94290.84
2023-03-05T02:11:51.014Z,94286.34
2023-03-05T02:14:17.964Z,94283.19
2023-03-05T02:16:44.744Z,94276.31
2023-03-05T02:19:12.881Z,94272.63
2023-03-05T02:21:45.514Z,94279.75
2023-03-05T02:24:14.582Z,94269.72
2023-03-05T02:26:43.262Z,94275.78
2023-03-05T02:29:12.465Z,94271.81
2023-03-05T02:31:39.246Z,94265.25
2023-03-05T02:34:06.598Z,94266.56
2023-03-05T02:36:34.563Z,94261.78
2023-03-05T02:39:01.405Z,94261.00
2023-03-05T02:41:28.207Z,94261.53
2023-03-05T02:43:57.022Z,94256.00
2023-03-05T02:46:23.753Z,94249.94
2023-03-05T02:48:50.505Z,94248.06
2023-03-05T02:51:17.593Z,94252.81
2023-03-05T02:53:45.562Z,94256.50
2023-03-05T02:56:12.965Z,94258.38
2023-03-05T02:58:39.910Z,94244.91
2023-03-05T03:01:06.643Z,94241.47
2023-03-05T03:03:34.649Z,94248.06
2023-03-05T03:06:01.407Z,94244.41
2023-03-05T03:08:28.373Z,94239.69
2023-03-05T03:10:56.528Z,94242.84
2023-03-05T03:13:25.382Z,94234.91
2023-03-05T03:16:02.065Z,94234.66
2023-03-05T03:18:28.793Z,94230.66
2023-03-05T03:20:55.461Z,94232.22
2023-03-05T03:23:22.133Z,94231.16
2023-03-05T03:25:48.775Z,94228.53
2023-03-05T03:28:15.465Z,94225.59
2023-03-05T03:30:42.196Z,94223.25
2023-03-05T03:33:09.893Z,94223.78
2023-03-05T03:35:36.793Z,94222.44
2023-03-05T03:38:14.449Z,94223.75
2023-03-05T03:40:46.282Z,94177.91
2023-03-05T03:43:16.270Z,94189.25
2023-03-05T03:45:50.438Z,94195.81
2023-03-05T03:48:21.209Z,94204.25
2023-03-05T03:50:52.622Z,94184.50
2023-03-05T03:53:24.512Z,94202.41
2023-03-05T03:56:01.614Z,94179.00
2023-03-05T03:58:41.460Z,94175.06
2023-03-05T04:01:12.885Z,94174.28
2023-03-05T04:03:48.118Z,94171.09
2023-03-05T04:06:22.412Z,94169.53
2023-03-05T04:08:58.288Z,94185.84
2023-03-05T04:11:31.250Z,94191.91
2023-03-05T04:14:03.196Z,94187.13
2023-03-05T04:16:41.963Z,94174.75
2023-03-05T04:19:17.854Z,94185.25
2023-03-05T04:21:54.084Z,94174.75
2023-03-05T04:24:30.564Z,94177.88
2023-03-05T04:27:03.700Z,94134.19
2023-03-05T04:29:38.637Z,94160.53
2023-03-05T04:32:16.766Z,94139.97
2023-03-05T04:34:55.720Z,94179.94
2023-03-05T04:37:38.312Z,94154.44
2023-03-05T04:40:16.623Z,94153.13
2023-03-05T04:42:51.764Z,94155.50
2023-03-05T04:45:27.193Z,94175.78
2023-03-05T04:47:57.582Z,94144.69
2023-03-05T04:50:25.824Z,94134.72
2023-03-05T04:52:53.823Z,94136.78
2023-03-05T04:55:21.636Z,94150.22
2023-03-05T04:57:49.765Z,94138.09
2023-03-05T05:00:19.374Z,94154.16
2023-03-05T05:02:50.167Z,94137.09
2023-03-05T05:05:21.044Z,94137.34
2023-03-05T05:07:49.442Z,94147.56
2023-03-05T05:10:17.792Z,94140.72
2023-03-05T05:12:45.999Z,94126.00
2023-03-05T05:15:14.472Z,94119.94
2023-03-05T05:17:43.159Z,94134.66
2023-03-05T05:20:13.604Z,94140.19
2023-03-05T05:22:41.527Z,94143.34
2023-03-05T05:25:10.849Z,94144.16
2023-03-05T05:27:40.602Z,94121.25
2023-03-05T05:30:10.045Z,94147.84
2023-03-05T05:32:38.796Z,94137.56
2023-03-05T05:35:07.652Z,94151.53
2023-03-05T05:37:35.937Z,94133.41
2023-03-05T05:40:06.013Z,94146.78
2023-03-05T05:42:34.972Z,94146.28
2023-03-05T05:45:03.877Z,94132.88
2023-03-05T05:47:32.699Z,94150.22
2023-03-05T05:50:00.570Z,94127.56
2023-03-05T05:52:28.517Z,94131.47
2023-03-05T05:54:56.325Z,94115.91
2023-03-05T05:57:25.417Z,94108.53
2023-03-05T05:59:55.321Z,94116.97
2023-03-05T06:02:27.568Z,94130.41
2023-03-05T06:05:06.869Z,94106.22
2023-03-05T06:07:39.786Z,94110.72
2023-03-05T06:10:10.828Z,94152.31
2023-03-05T06:12:39.169Z,94142.81
2023-03-05T06:15:07.314Z,94132.78
2023-03-05T06:17:39.247Z,94158.81
2023-03-05T06:20:11.629Z,94121.94
2023-03-05T06:22:42.579Z,94158.81
2023-03-05T06:25:11.240Z,94112.75
2023-03-05T06:27:41.267Z,94134.03
2023-03-05T06:30:11.301Z,94118.00
2023-03-05T06:32:39.537Z,94141.66
2023-03-05T06:35:07.693Z,94144.81
2023-03-05T06:37:35.722Z,94148.22
2023-03-05T06:40:04.533Z,94132.16
2023-03-05T06:42:32.964Z,94134.53
2023-03-05T06:45:04.187Z,94137.16
2023-03-05T06:47:35.397Z,94136.09
2023-03-05T06:50:03.221Z,94136.66
2023-03-05T06:52:31.225Z,94108.50
2023-03-05T06:55:01.938Z,94137.16
2023-03-05T06:57:32.557Z,94119.03
2023-03-05T07:00:00.881Z,94120.34
2023-03-05T07:02:34.643Z,94128.72
2023-03-05T07:05:02.765Z,94105.53
2023-03-05T07:07:30.868Z,94106.06
2023-03-05T07:09:58.445Z,94124.47
2023-03-05T07:12:29.278Z,94132.59
2023-03-05T07:15:00.461Z,94137.59
2023-03-05T07:17:28.916Z,94092.59
2023-03-05T07:19:56.400Z,94120.28
2023-03-05T07:22:24.079Z,94107.38
2023-03-05T07:24:52.234Z,94139.97
2023-03-05T07:27:22.028Z,94114.44
2023-03-05T07:29:57.889Z,94121.78
2023-03-05T07:32:30.092Z,94124.16
2023-03-05T07:34:57.763Z,94105.75
2023-03-05T07:37:30.038Z,94101.81
2023-03-05T07:40:00.751Z,94101.00
2023-03-05T07:42:30.476Z,94124.66
2023-03-05T07:45:13.742Z,94094.44
2023-03-05T07:47:44.791Z,94119.41
2023-03-05T07:50:12.628Z,94137.56
2023-03-05T07:52:40.492Z,94123.31
2023-03-05T07:55:08.780Z,94094.66
2023-03-05T07:57:39.330Z,94090.94
2023-03-05T08:00:08.345Z,94120.38
2023-03-05T08:02:45.562Z,94132.19
2023-03-05T08:05:15.418Z,94121.09
2023-03-05T08:07:43.797Z,94113.44
2023-03-05T08:10:15.648Z,94095.06
2023-03-05T08:12:47.478Z,94105.88
2023-03-05T08:15:23.593Z,94110.84
2023-03-05T08:17:56.773Z,94086.91
2023-03-05T08:20:33.264Z,94083.44
2023-03-05T08:23:09.558Z,94089.16
2023-03-05T08:25:40.859Z,94096.28
2023-03-05T08:28:14.165Z,94114.72
2023-03-05T08:30:50.507Z,94098.34
2023-03-05T08:33:26.276Z,94097.31
2023-03-05T08:35:54.126Z,94083.88
2023-03-05T08:38:22.629Z,94077.72
2023-03-05T08:40:50.608Z,94082.19
2023-03-05T08:43:18.881Z,94105.56
2023-03-05T08:45:47.843Z,94101.63
2023-03-05T08:48:16.927Z,94075.59
2023-03-05T08:50:44.789Z,94113.47
2023-03-05T08:53:13.193Z,94113.53
2023-03-05T08:55:43.831Z,94115.66
2023-03-05T08:58:11.830Z,94097.78
2023-03-05T09:00:40.237Z,94098.03
2023-03-05T09:03:10.122Z,94121.34
2023-03-05T09:05:39.219Z,94099.25
2023-03-05T09:08:06.988Z,94075.59
2023-03-05T09:10:35.085Z,94075.34
2023-03-05T09:13:04.869Z,94096.63
2023-03-05T09:15:35.755Z,94082.75
2023-03-05T09:18:13.225Z,94110.84
2023-03-05T09:20:42.813Z,94088.56
2023-03-05T09:23:27.602Z,94101.63
2023-03-05T09:26:04.795Z,94088.19
2023-03-05T09:28:54.734Z,94108.72
2023-03-05T09:31:50.230Z,94098.13
2023-03-05T09:34:49.014Z,94098.28
2023-03-05T09:37:42.008Z,94100.41
2023-03-05T09:40:20.988Z,94068.31
2023-03-05T09:43:44.081Z,94094.25
2023-03-05T09:46:46.366Z,94092.13
2023-03-05T09:49:44.979Z,94090.28
2023-03-05T09:52:45.931Z,94083.91
2023-03-05T09:55:30.568Z,94073.66
2023-03-05T09:58:10.248Z,94093.50
2023-03-05T10:00:42.028Z,94083.38
2023-03-05T10:03:29.529Z,94044.66
2023-03-05T10:06:27.767Z,94075.59
2023-03-05T10:09:44.658Z,94073.56
2023-03-05T10:12:38.289Z,94066.59
2023-03-05T10:15:23.401Z,94070.53
2023-03-05T10:18:22.152Z,94058.44
2023-03-05T10:21:04.095Z,94051.25
2023-03-05T10:23:54.710Z,94059.78
2023-03-05T10:26:37.381Z,94066.69
2023-03-05T10:29:41.271Z,94048.69
2023-03-05T10:32:45.665Z,94059.88
2023-03-05T10:35:46.840Z,94048.84
2023-03-05T10:39:01.487Z,94054.44
2023-03-05T10:42:04.263Z,94051.44
2023-03-05T10:44:40.707Z,94042.63
2023-03-05T10:47:39.665Z,94032.25
2023-03-05T10:50:29.041Z,94037.03
2023-03-05T10:53:05.795Z,94034.47
2023-03-05T10:55:39.392Z,94023.53
2023-03-05T10:58:26.627Z,94023.91
2023-03-05T11:01:13.316Z,94028.22
2023-03-05T11:03:58.281Z,94030.81
2023-03-05T11:09:43.972Z,94010.16
2023-03-05T11:12:15.529Z,94026.94
2023-03-05T11:15:15.762Z,94016.09
2023-03-05T11:17:48.455Z,93993.13
2023-03-05T11:20:29.296Z,94012.44
2023-03-05T11:23:08.509Z,94014.81
2023-03-05T11:25:51.146Z,93994.63
2023-03-05T11:28:33.310Z,93990.13
2023-03-05T11:31:27.929Z,94008.88
2023-03-05T11:36:58.630Z,94005.66
2023-03-05T11:39:35.274Z,93994.28
2023-03-05T11:42:36.772Z,94001.28
2023-03-05T11:45:22.592Z,93995.47
2023-03-05T11:48:11.537Z,93995.69
2023-03-05T11:50:53.782Z,93971.53
2023-03-05T11:53:36.307Z,93966.38
2023-03-05T11:56:28.532Z,93972.81
2023-03-05T11:59:31.281Z,93976.66
2023-03-05T12:02:06.391Z,93945.56
2023-03-05T12:04:36.967Z,93961.28
2023-03-05T12:07:07.108Z,93960.69
2023-03-05T12:09:43.306Z,93956.19
2023-03-05T12:13:03.233Z,93953.84
2023-03-05T12:16:39.343Z,93949.53
2023-03-05T12:19:22.139Z,93953.75
2023-03-05T12:22:04.885Z,93933.81
2023-03-05T12:24:39.063Z,93927.91
2023-03-05T12:27:12.856Z,93934.00
2023-03-05T12:29:48.046Z,93925.38
2023-03-05T12:32:26.704Z,93934.97
2023-03-05T12:35:20.130Z,93924.66
2023-03-05T12:38:04.442Z,93927.09
2023-03-05T12:40:44.001Z,93926.09
2023-03-05T12:43:36.696Z,93909.59
2023-03-05T12:46:29.498Z,93895.78
2023-03-05T12:49:00.649Z,93903.06
2023-03-05T12:51:36.768Z,93893.28
2023-03-05T12:54:49.674Z,93909.28
2023-03-05T12:57:36.697Z,93895.06
2023-03-05T13:00:22.525Z,93852.97
2023-03-05T13:03:11.867Z,93882.47
2023-03-05T13:05:52.659Z,93852.88
2023-03-05T13:08:24.337Z,93867.44
2023-03-05T13:11:05.545Z,93865.56
2023-03-05T13:13:49.083Z,93864.22
2023-03-05T13:16:43.515Z,93864.03
2023-03-05T13:19:22.498Z,93868.94
2023-03-05T13:22:29.814Z,93872.44
2023-03-05T13:25:21.632Z,93851.88
2023-03-05T13:27:54.873Z,93854.81
2023-03-05T13:30:28.146Z,93870.63
2023-03-05T13:33:05.002Z,93831.91
2023-03-05T13:35:40.908Z,93837.28
2023-03-05T13:38:38.820Z,93869.16
2023-03-05T13:41:23.520Z,93864.22
2023-03-05T13:44:00.062Z,93847.56
2023-03-05T13:46:35.245Z,93842.84
2023-03-05T13:50:39.623Z,93855.94
2023-03-05T13:53:22.163Z,93812.19
2023-03-05T13:56:39.973Z,93846.09
2023-03-05T13:59:25.800Z,93825.56
2023-03-05T14:01:56.829Z,93848.06
2023-03-05T14:04:34.458Z,93844.38
2023-03-05T14:07:35.990Z,93833.16
2023-03-05T14:10:27.898Z,93838.38
2023-03-05T14:13:14.531Z,93837.16
2023-03-05T14:15:54.534Z,93834.50
2023-03-05T14:18:43.936Z,93845.50
2023-03-05T14:21:18.248Z,93832.06
2023-03-05T14:23:50.511Z,93817.91
2023-03-05T14:26:29.142Z,93820.63
2023-03-05T14:29:24.863Z,93803.56
2023-03-05T14:32:10.136Z,93818.13
2023-03-05T14:34:56.930Z,93805.75
2023-03-05T14:37:40.380Z,93799.69
2023-03-05T14:40:21.355Z,93802.69
2023-03-05T14:43:02.864Z,93826.50
2023-03-05T14:45:41.401Z,93800.13
2023-03-05T14:48:19.129Z,93775.25
2023-03-05T14:51:09.033Z,93788.47
2023-03-05T14:53:49.395Z,93788.53
2023-03-05T14:56:30.750Z,93801.00
2023-03-05T14:59:07.860Z,93774.03
2023-03-05T15:01:42.356Z,93754.41
2023-03-05T15:04:22.977Z,93773.44
2023-03-05T15:07:03.374Z,93775.91
2023-03-05T15:09:43.555Z,93771.53
2023-03-05T15:12:20.228Z,93781.03
2023-03-05T15:15:10.578Z,93782.63
2023-03-05T15:17:45.813Z,93739.50
2023-03-05T15:20:28.936Z,93777.00
2023-03-05T15:22:59.695Z,93748.13
2023-03-05T15:25:32.191Z,93743.72
2023-03-05T15:28:07.492Z,93746.50
2023-03-05T15:30:43.476Z,93727.66
2023-03-05T15:33:19.969Z,93741.63
2023-03-05T15:35:52.648Z,93752.69
2023-03-05T15:38:22.469Z,93744.25
2023-03-05T15:40:56.587Z,93724.19
2023-03-05T15:43:27.109Z,93740.06
2023-03-05T15:45:56.510Z,93724.88
2023-03-05T15:48:27.508Z,93733.78
2023-03-05T15:50:58.433Z,93740.28
2023-03-05T15:53:27.896Z,93690.22
2023-03-05T15:55:59.546Z,93726.41
2023-03-05T15:58:30.021Z,93728.78
2023-03-05T16:01:08.787Z,93715.91
2023-03-05T16:03:38.856Z,93707.84
2023-03-05T16:08:49.362Z,93690.34
2023-03-05T16:11:19.907Z,93699.22
2023-03-05T16:14:02.288Z,93690.66
2023-03-05T16:16:36.496Z,93687.53
2023-03-05T16:19:10.620Z,93690.66
2023-03-05T16:21:40.569Z,93672.41
2023-03-05T16:24:11.072Z,93685.97
2023-03-05T16:26:41.847Z,93710.00
2023-03-05T16:29:13.988Z,93685.97
2023-03-05T16:31:45.677Z,93669.19
2023-03-05T16:34:16.701Z,93685.97
2023-03-05T16:36:53.544Z,93690.28
2023-03-05T16:39:25.785Z,93692.34
2023-03-05T16:42:04.446Z,93684.00
2023-03-05T16:44:36.130Z,93660.69
2023-03-05T16:47:09.841Z,93677.44
2023-03-05T16:49:41.511Z,93702.16
2023-03-05T16:52:19.003Z,93667.31
2023-03-05T16:54:54.863Z,93679.41
2023-03-05T16:57:26.644Z,93671.81
2023-03-05T16:59:57.671Z,93645.47
2023-03-05T17:02:28.530Z,93648.09
2023-03-05T17:05:01.136Z,93667.34
2023-03-05T17:07:31.019Z,93677.34
2023-03-05T17:10:05.957Z,93644.97
2023-03-05T17:12:39.675Z,93670.09
2023-03-05T17:15:11.141Z,93685.00
2023-03-05T17:17:42.512Z,93641.03
2023-03-05T17:20:13.744Z,93674.31
2023-03-05T17:22:48.404Z,93638.78
2023-03-05T17:25:20.408Z,93654.75
2023-03-05T17:27:49.926Z,93688.50
2023-03-05T17:30:21.037Z,93688.78
2023-03-05T17:32:56.757Z,93662.97
2023-03-05T17:35:26.089Z,93672.19
2023-03-05T17:37:56.511Z,93668.06
2023-03-05T17:40:25.802Z,93656.56
2023-03-05T17:43:04.002Z,93678.25
2023-03-05T17:45:35.919Z,93638.53
2023-03-05T17:48:06.279Z,93654.38
2023-03-05T17:50:37.523Z,93673.66
2023-03-05T17:53:11.891Z,93689.72
2023-03-05T17:55:42.227Z,93643.53
2023-03-05T17:58:12.206Z,93663.84
2023-03-05T18:00:41.403Z,93667.19
2023-03-05T18:03:18.927Z,93685.81
2023-03-05T18:05:51.999Z,93669.94
2023-03-05T18:08:22.010Z,93635.69
2023-03-05T18:10:53.436Z,93676.19
2023-03-05T18:13:25.081Z,93656.44
2023-03-05T18:15:59.337Z,93668.44
2023-03-05T18:18:32.851Z,93666.28
2023-03-05T18:21:03.790Z,93655.06
2023-03-05T18:23:38.038Z,93679.50
2023-03-05T18:26:10.960Z,93657.81
2023-03-05T18:28:43.984Z,93663.94
2023-03-05T18:31:12.795Z,93661.00
2023-03-05T18:33:42.788Z,93641.56
2023-03-05T18:36:15.108Z,93657.06
2023-03-05T18:38:43.526Z,93652.72
2023-03-05T18:41:24.354Z,93653.31
2023-03-05T18:43:55.292Z,93643.03
2023-03-05T18:46:24.886Z,93644.16
2023-03-05T18:48:58.246Z,93647.72
2023-03-05T18:51:29.786Z,93630.78
2023-03-05T18:53:59.648Z,93620.81
2023-03-05T18:56:30.306Z,93648.06
2023-03-05T18:58:59.029Z,93645.00
2023-03-05T19:01:29.981Z,93619.19
2023-03-05T19:03:57.815Z,93611.94
2023-03-05T19:06:37.396Z,93627.25
2023-03-05T19:09:22.360Z,93631.19
2023-03-05T19:11:58.835Z,93631.69
2023-03-05T19:14:31.229Z,93644.59
2023-03-05T19:17:02.013Z,93639.38
2023-03-05T19:19:39.266Z,93608.00
2023-03-05T19:22:09.493Z,93598.22
2023-03-05T19:24:39.690Z,93638.66
2023-03-05T19:27:12.134Z,93599.69
2023-03-05T19:29:48.030Z,93637.78
2023-03-05T19:32:24.298Z,93620.31
2023-03-05T19:35:01.083Z,93617.47
2023-03-05T19:37:32.974Z,93627.31
2023-03-05T19:40:06.554Z,93625.03
2023-03-05T19:42:41.967Z,93646.81
2023-03-05T19:45:22.096Z,93630.69
2023-03-05T19:47:51.664Z,93608.41
2023-03-05T19:50:21.552Z,93620.59
2023-03-05T19:52:56.158Z,93613.81
2023-03-05T19:55:24.802Z,93625.69
2023-03-05T19:57:54.393Z,93607.16
2023-03-05T20:00:28.070Z,93573.81
2023-03-05T20:02:59.469Z,93572.16
2023-03-05T20:05:30.782Z,93584.72
2023-03-05T20:08:11.489Z,93561.59
2023-03-05T20:10:44.925Z,93594.84
2023-03-05T20:13:16.914Z,93577.09
2023-03-05T20:15:56.667Z,93605.34
2023-03-05T20:18:30.438Z,93596.63
2023-03-05T20:21:06.557Z,93606.53
2023-03-05T20:23:37.858Z,93588.47
2023-03-05T20:26:08.364Z,93572.81
2023-03-05T20:28:40.713Z,93594.47
2023-03-05T20:31:19.855Z,93579.56
2023-03-05T20:33:51.875Z,93598.19
2023-03-05T20:36:25.803Z,93558.25
2023-03-05T20:38:59.001Z,93601.47
2023-03-05T20:41:35.843Z,93605.41
2023-03-05T20:44:07.455Z,93580.59
2023-03-05T20:46:43.030Z,93598.84
2023-03-05T20:49:16.505Z,93588.94
2023-03-05T20:51:52.025Z,93582.38
2023-03-05T20:54:29.574Z,93560.19
2023-03-05T20:57:12.646Z,93568.66
2023-03-05T20:59:45.828Z,93544.94
2023-03-05T21:02:26.666Z,93589.78
2023-03-05T21:04:59.575Z,93545.78
2023-03-05T21:07:30.382Z,93532.81
2023-03-05T21:10:05.144Z,93533.97
2023-03-05T21:12:37.322Z,93552.25
2023-03-05T21:15:08.750Z,93521.50
2023-03-05T21:17:40.675Z,93538.59
2023-03-05T21:20:16.992Z,93515.59
2023-03-05T21:22:44.899Z,93513.22
2023-03-05T21:25:23.308Z,93507.78
2023-03-05T21:28:15.999Z,93543.56
2023-03-05T21:30:51.219Z,93499.16
2023-03-05T21:33:35.076Z,93537.88
2023-03-05T21:36:13.200Z,93514.66
2023-03-05T21:38:51.774Z,93495.16
2023-03-05T21:41:26.850Z,93511.63
2023-03-05T21:44:06.245Z,93515.28
2023-03-05T21:46:39.682Z,93493.31
2023-03-05T21:49:13.177Z,93476.06
2023-03-05T21:52:02.920Z,93508.00
2023-03-05T21:54:38.159Z,93518.06
2023-03-05T21:57:11.475Z,93475.84
2023-03-05T21:59:46.317Z,93522.63
2023-03-05T22:02:25.644Z,93479.31
2023-03-05T22:05:03.537Z,93499.97
2023-03-05T22:07:40.555Z,93493.41
2023-03-05T22:10:17.706Z,93511.47
2023-03-05T22:13:13.330Z,93503.63
2023-03-05T22:15:52.774Z,93482.03
2023-03-05T22:18:30.183Z,93464.19
2023-03-05T22:21:03.749Z,93486.03
2023-03-05T22:23:36.875Z,93512.09
2023-03-05T22:26:12.852Z,93463.22
2023-03-05T22:28:51.077Z,93476.75
2023-03-05T22:31:32.938Z,93486.56
2023-03-05T22:34:05.964Z,93456.16
2023-03-05T22:36:40.266Z,93476.72
2023-03-05T22:39:17.498Z,93446.31
2023-03-05T22:41:51.360Z,93456.25
2023-03-05T22:44:25.740Z,93453.19
2023-03-05T22:47:02.508Z,93452.31
2023-03-05T22:49:30.554Z,93453.38
2023-03-05T22:51:58.590Z,93462.19
2023-03-05T22:54:29.366Z,93445.06
2023-03-05T22:56:57.656Z,93475.53
2023-03-05T22:59:25.672Z,93450.81
2023-03-05T23:01:53.854Z,93468.16
2023-03-05T23:04:44.042Z,93475.09
2023-03-05T23:07:12.255Z,93442.09
2023-03-05T23:09:40.462Z,93450.25
2023-03-05T23:12:08.611Z,93431.28
2023-03-05T23:14:41.564Z,93414.66
2023-03-05T23:17:11.987Z,93394.97
2023-03-05T23:19:49.304Z,93426.81
2023-03-05T23:22:19.407Z,93423.19
2023-03-05T23:24:50.605Z,93427.19
2023-03-05T23:27:21.508Z,93421.00
2023-03-05T23:30:08.685Z,93407.00
2023-03-05T23:32:42.244Z,93415.78
2023-03-05T23:35:15.006Z,93387.16
2023-03-05T23:37:49.906Z,93441.53
2023-03-05T23:40:24.332Z,93409.28
2023-03-05T23:42:59.062Z,93408.34
2023-03-05T23:45:37.369Z,93393.31
2023-03-05T23:48:07.319Z,93413.38
2023-03-05T23:50:42.374Z,93422.94
2023-03-05T23:53:19.776Z,93398.94
2023-03-05T23:55:54.759Z,93389.75
2023-03-05T23:58:23.320Z,93378.47
